createdAt,value
2023-07-24T00:02:05.510Z,2.70
2023-07-24T00:04:36.781Z,2.80
2023-07-24T00:07:08.131Z,2.60
2023-07-24T00:09:39.039Z,2.60
2023-07-24T00:12:11.252Z,2.30
2023-07-24T00:14:42.281Z,2.30
2023-07-24T00:17:13.390Z,2.70
2023-07-24T00:19:44.558Z,3.20
2023-07-24T00:22:15.895Z,2.40
2023-07-24T00:24:47.438Z,2.30
2023-07-24T00:27:18.523Z,3.50
2023-07-24T00:29:49.984Z,2.50
2023-07-24T00:32:21.132Z,2.40
2023-07-24T00:34:52.469Z,2.70
2023-07-24T00:37:23.491Z,2.50
2023-07-24T00:39:54.562Z,2.40
2023-07-24T00:42:25.724Z,2.90
2023-07-24T00:44:56.677Z,2.40
2023-07-24T00:47:29.547Z,2.20
2023-07-24T00:50:00.964Z,2.30
2023-07-24T00:52:33.565Z,2.60
2023-07-24T00:55:05.102Z,2.40
2023-07-24T00:57:36.743Z,2.20
2023-07-24T01:00:09.584Z,2.50
2023-07-24T01:02:40.897Z,2.30
2023-07-24T01:05:13.454Z,2.70
2023-07-24T01:07:44.784Z,2.10
2023-07-24T01:10:15.929Z,2.60
2023-07-24T01:12:53.478Z,2.30
2023-07-24T01:15:31.965Z,2.40
2023-07-24T01:18:08.509Z,2.60
2023-07-24T01:20:44.697Z,2.60
2023-07-24T01:23:41.743Z,2.30
2023-07-24T01:26:14.378Z,2.50
2023-07-24T01:28:45.584Z,2.30
2023-07-24T01:31:17.926Z,2.60
2023-07-24T01:33:49.532Z,2.40
2023-07-24T01:36:22.464Z,2.80
2023-07-24T01:38:54.672Z,2.30
2023-07-24T01:41:26.318Z,2.70
2023-07-24T01:43:57.655Z,2.70
2023-07-24T01:46:29.421Z,2.60
2023-07-24T01:49:00.956Z,2.60
2023-07-24T01:51:33.049Z,2.50
2023-07-24T01:54:04.061Z,2.60
2023-07-24T01:56:36.488Z,2.60
2023-07-24T01:59:08.423Z,2.40
2023-07-24T02:01:39.539Z,2.40
2023-07-24T02:04:10.615Z,2.70
2023-07-24T02:06:41.866Z,2.20
2023-07-24T02:09:13.964Z,2.30
2023-07-24T02:11:45.111Z,2.10
2023-07-24T02:14:17.798Z,2.70
2023-07-24T02:16:49.091Z,2.50
2023-07-24T02:19:20.119Z,2.60
2023-07-24T02:21:51.609Z,2.40
2023-07-24T02:24:22.824Z,2.70
2023-07-24T02:26:54.312Z,2.20
2023-07-24T02:29:25.379Z,2.40
2023-07-24T02:31:57.283Z,2.00
2023-07-24T02:34:29.566Z,2.60
2023-07-24T02:37:00.840Z,2.40
2023-07-24T02:39:32.362Z,2.40
2023-07-24T02:42:04.087Z,2.40
2023-07-24T02:44:36.319Z,2.50
2023-07-24T02:47:07.944Z,2.90
2023-07-24T02:49:39.212Z,2.30
2023-07-24T02:52:10.896Z,2.70
2023-07-24T02:54:42.008Z,2.30
2023-07-24T02:57:13.528Z,2.60
2023-07-24T02:59:44.719Z,2.40
2023-07-24T03:02:16.796Z,2.30
2023-07-24T03:04:47.985Z,2.30
2023-07-24T03:07:19.111Z,2.50
2023-07-24T03:09:52.748Z,2.80
2023-07-24T03:12:23.879Z,2.20
2023-07-24T03:14:55.141Z,2.90
2023-07-24T03:17:26.480Z,2.90
2023-07-24T03:19:58.190Z,2.20
2023-07-24T03:22:29.202Z,2.10
2023-07-24T03:25:00.251Z,2.60
2023-07-24T03:27:33.785Z,2.30
2023-07-24T03:30:05.201Z,2.30
2023-07-24T03:32:37.203Z,2.40
2023-07-24T03:35:09.947Z,2.60
2023-07-24T03:37:41.115Z,2.10
2023-07-24T03:40:14.964Z,2.50
2023-07-24T03:42:45.982Z,2.90
2023-07-24T03:45:16.998Z,2.20
2023-07-24T03:47:48.261Z,2.40
2023-07-24T03:50:20.362Z,2.10
2023-07-24T03:52:51.516Z,2.50
2023-07-24T03:55:23.616Z,2.80
2023-07-24T03:57:54.741Z,2.50
2023-07-24T04:00:26.049Z,2.10
2023-07-24T04:02:57.757Z,2.10
2023-07-24T04:05:29.276Z,2.50
2023-07-24T04:08:00.607Z,2.40
2023-07-24T04:10:32.157Z,2.10
2023-07-24T04:13:03.267Z,2.50
2023-07-24T04:15:34.580Z,2.50
2023-07-24T04:18:05.891Z,2.60
2023-07-24T04:20:37.055Z,2.40
2023-07-24T04:23:08.233Z,2.60
2023-07-24T04:25:39.636Z,3.00
2023-07-24T04:28:11.035Z,2.40
2023-07-24T04:30:42.421Z,2.60
2023-07-24T04:33:13.791Z,2.20
2023-07-24T04:35:45.206Z,2.60
2023-07-24T04:38:16.278Z,2.30
2023-07-24T04:40:48.975Z,2.30
2023-07-24T04:43:20.471Z,2.60
2023-07-24T04:45:51.602Z,2.40
2023-07-24T04:48:23.273Z,2.50
2023-07-24T04:50:58.686Z,2.80
2023-07-24T04:53:30.099Z,2.60
2023-07-24T04:56:01.372Z,2.90
2023-07-24T04:58:33.797Z,2.80
2023-07-24T05:01:07.544Z,2.60
2023-07-24T05:03:38.531Z,2.50
2023-07-24T05:06:11.352Z,2.90
2023-07-24T05:08:42.530Z,2.70
2023-07-24T05:11:13.754Z,2.50
2023-07-24T05:13:44.743Z,3.40
2023-07-24T05:16:15.914Z,3.40
2023-07-24T05:18:47.011Z,2.80
2023-07-24T05:21:18.134Z,2.80
2023-07-24T05:23:51.858Z,2.70
2023-07-24T05:26:23.250Z,2.90
2023-07-24T05:28:54.920Z,3.30
2023-07-24T05:31:26.204Z,2.50
2023-07-24T05:33:57.338Z,2.70
2023-07-24T05:36:28.977Z,2.70
2023-07-24T05:39:03.336Z,2.50
2023-07-24T05:41:34.375Z,2.90
2023-07-24T05:44:05.788Z,2.80
2023-07-24T05:46:37.486Z,2.60
2023-07-24T05:49:08.616Z,3.10
2023-07-24T05:51:39.643Z,2.70
2023-07-24T05:54:10.664Z,2.60
2023-07-24T05:56:41.689Z,2.70
2023-07-24T05:59:12.803Z,2.80
2023-07-24T06:01:44.096Z,2.70
2023-07-24T06:04:15.433Z,2.80
2023-07-24T06:06:47.097Z,2.40
2023-07-24T06:09:19.796Z,3.10
2023-07-24T06:11:52.696Z,2.90
2023-07-24T06:14:23.959Z,2.90
2023-07-24T06:16:55.046Z,3.00
2023-07-24T06:19:26.500Z,2.50
2023-07-24T06:21:57.610Z,2.80
2023-07-24T06:24:28.796Z,2.60
2023-07-24T06:26:59.850Z,2.60
2023-07-24T06:29:31.040Z,3.10
2023-07-24T06:32:02.189Z,3.00
2023-07-24T06:34:33.317Z,3.10
2023-07-24T06:37:20.592Z,3.20
2023-07-24T06:39:53.622Z,2.70
2023-07-24T06:42:25.010Z,2.70
2023-07-24T06:44:56.099Z,3.50
2023-07-24T06:47:27.268Z,3.20
2023-07-24T06:49:58.722Z,3.00
2023-07-24T06:52:29.973Z,3.10
2023-07-24T06:55:01.453Z,2.90
2023-07-24T06:57:33.258Z,3.40
2023-07-24T07:00:04.533Z,3.30
2023-07-24T07:02:35.688Z,3.50
2023-07-24T07:05:07.501Z,3.50
2023-07-24T07:07:38.570Z,3.30
2023-07-24T07:10:11.212Z,3.40
2023-07-24T07:12:42.275Z,2.80
2023-07-24T07:15:13.851Z,3.10
2023-07-24T07:17:45.461Z,3.60
2023-07-24T07:20:16.847Z,3.30
2023-07-24T07:22:47.828Z,3.90
2023-07-24T07:25:19.653Z,3.30
2023-07-24T07:27:50.655Z,3.30
2023-07-24T07:30:21.842Z,3.80
2023-07-24T07:32:52.909Z,3.70
2023-07-24T07:35:24.353Z,3.40
2023-07-24T07:37:56.233Z,4.00
2023-07-24T07:40:28.075Z,3.70
2023-07-24T07:43:13.076Z,4.10
2023-07-24T07:45:44.116Z,3.60
2023-07-24T07:48:15.285Z,3.30
2023-07-24T07:50:46.543Z,4.10
2023-07-24T07:53:17.577Z,3.50
2023-07-24T07:55:48.876Z,3.50
2023-07-24T07:58:19.894Z,3.60
2023-07-24T08:00:50.853Z,3.60
2023-07-24T08:03:22.030Z,3.40
2023-07-24T08:05:53.188Z,3.60
2023-07-24T08:08:24.274Z,3.90
2023-07-24T08:10:55.341Z,3.60
2023-07-24T08:13:26.496Z,3.80
2023-07-24T08:15:57.642Z,3.60
2023-07-24T08:18:28.789Z,3.60
2023-07-24T08:21:00.031Z,3.70
2023-07-24T08:23:31.054Z,3.80
2023-07-24T08:26:03.743Z,3.80
2023-07-24T08:28:35.673Z,3.70
2023-07-24T08:31:07.567Z,4.00
2023-07-24T08:33:38.964Z,3.80
2023-07-24T08:36:12.776Z,3.90
2023-07-24T08:38:44.662Z,4.00
2023-07-24T08:41:17.013Z,3.80
2023-07-24T08:43:48.208Z,3.70
2023-07-24T08:46:20.362Z,3.50
2023-07-24T08:48:51.572Z,3.70
2023-07-24T08:51:23.459Z,4.10
2023-07-24T08:53:55.024Z,4.20
2023-07-24T08:56:26.246Z,4.40
2023-07-24T08:58:57.513Z,3.40
2023-07-24T09:01:28.689Z,3.90
2023-07-24T09:04:00.339Z,4.00
2023-07-24T09:06:32.254Z,3.80
2023-07-24T09:09:04.499Z,4.00
2023-07-24T09:11:47.399Z,3.90
2023-07-24T09:14:26.377Z,4.10
2023-07-24T09:17:09.159Z,4.40
2023-07-24T09:19:40.716Z,4.70
2023-07-24T09:22:16.568Z,4.20
2023-07-24T09:24:58.333Z,4.30
2023-07-24T09:27:32.957Z,4.10
2023-07-24T09:30:13.840Z,4.00
2023-07-24T09:32:45.107Z,4.50
2023-07-24T09:35:27.636Z,4.20
2023-07-24T09:38:07.998Z,4.10
2023-07-24T09:40:46.405Z,4.60
2023-07-24T09:45:59.687Z,4.60
2023-07-24T09:51:05.699Z,4.40
2023-07-24T09:53:42.843Z,4.50
2023-07-24T09:56:15.260Z,5.00
2023-07-24T09:58:50.144Z,4.60
2023-07-24T10:01:21.578Z,4.50
2023-07-24T10:03:54.115Z,4.70
2023-07-24T10:06:26.653Z,4.90
2023-07-24T10:08:59.159Z,4.80
2023-07-24T10:11:35.613Z,4.40
2023-07-24T10:14:07.711Z,4.50
2023-07-24T10:16:38.785Z,4.00
2023-07-24T10:19:18.242Z,4.40
2023-07-24T10:21:53.594Z,5.00
2023-07-24T10:24:41.212Z,4.20
2023-07-24T10:27:13.706Z,4.40
2023-07-24T10:29:48.263Z,4.40
2023-07-24T10:32:22.894Z,4.40
2023-07-24T10:35:08.264Z,4.40
2023-07-24T10:37:40.124Z,4.70
2023-07-24T10:40:23.286Z,5.00
2023-07-24T10:43:06.628Z,4.50
2023-07-24T10:45:48.999Z,4.80
2023-07-24T10:48:21.453Z,4.50
2023-07-24T10:50:55.318Z,4.50
2023-07-24T10:53:27.938Z,4.20
2023-07-24T10:55:59.095Z,4.00
2023-07-24T10:58:31.196Z,5.80
2023-07-24T11:01:03.055Z,5.20
2023-07-24T11:03:34.667Z,4.80
2023-07-24T11:06:06.575Z,4.90
2023-07-24T11:08:38.668Z,4.80
2023-07-24T11:11:10.020Z,4.60
2023-07-24T11:13:42.154Z,5.70
2023-07-24T11:16:13.732Z,4.50
2023-07-24T11:18:55.100Z,4.80
2023-07-24T11:21:27.816Z,4.60
2023-07-24T11:24:00.197Z,4.90
2023-07-24T11:26:31.316Z,4.50
2023-07-24T11:29:02.395Z,4.40
2023-07-24T11:31:40.590Z,4.60
2023-07-24T11:34:12.735Z,4.90
2023-07-24T11:36:44.062Z,4.30
2023-07-24T11:39:16.500Z,4.10
2023-07-24T11:41:49.408Z,4.40
2023-07-24T11:44:29.189Z,4.40
2023-07-24T11:47:06.955Z,4.40
2023-07-24T11:49:38.495Z,4.80
2023-07-24T11:52:11.046Z,4.50
2023-07-24T11:54:42.351Z,4.50
2023-07-24T11:57:19.679Z,4.60
2023-07-24T11:59:50.690Z,5.70
2023-07-24T12:02:22.500Z,5.00
2023-07-24T12:04:59.991Z,4.70
2023-07-24T12:07:36.081Z,4.50
2023-07-24T12:12:47.557Z,4.20
2023-07-24T12:15:19.940Z,4.60
2023-07-24T12:17:51.367Z,4.50
2023-07-24T12:20:22.724Z,5.00
2023-07-24T12:22:55.046Z,4.90
2023-07-24T12:25:26.551Z,4.60
2023-07-24T12:27:57.591Z,5.10
2023-07-24T12:30:30.160Z,4.70
2023-07-24T12:33:01.335Z,5.00
2023-07-24T12:35:32.849Z,4.60
2023-07-24T12:38:04.295Z,4.70
2023-07-24T12:40:35.416Z,4.90
2023-07-24T12:43:06.655Z,5.10
2023-07-24T12:45:37.932Z,4.90
2023-07-24T12:48:09.250Z,5.40
2023-07-24T12:50:40.347Z,5.80
2023-07-24T12:53:15.660Z,5.10
2023-07-24T12:55:53.342Z,5.30
2023-07-24T12:58:24.472Z,5.30
2023-07-24T13:00:55.765Z,5.50
2023-07-24T13:03:27.032Z,5.10
2023-07-24T13:05:58.316Z,5.30
2023-07-24T13:08:29.741Z,5.30
2023-07-24T13:11:01.359Z,5.00
2023-07-24T13:13:32.928Z,5.60
2023-07-24T13:16:04.231Z,6.10
2023-07-24T13:18:35.327Z,5.10
2023-07-24T13:21:07.605Z,4.70
2023-07-24T13:23:38.814Z,5.00
2023-07-24T13:26:11.804Z,4.70
2023-07-24T13:28:43.097Z,4.80
2023-07-24T13:31:18.255Z,5.00
2023-07-24T13:33:49.199Z,4.50
2023-07-24T13:36:20.340Z,5.30
2023-07-24T13:38:51.488Z,4.70
2023-07-24T13:41:22.942Z,4.80
2023-07-24T13:43:54.098Z,4.80
2023-07-24T13:46:25.268Z,4.80
2023-07-24T13:48:56.392Z,4.70
2023-07-24T13:51:27.629Z,4.30
2023-07-24T13:53:58.583Z,4.30
2023-07-24T13:56:30.866Z,5.10
2023-07-24T13:59:01.944Z,5.00
2023-07-24T14:01:33.467Z,5.60
2023-07-24T14:04:04.928Z,4.60
2023-07-24T14:06:36.121Z,5.00
2023-07-24T14:09:07.183Z,4.60
2023-07-24T14:11:38.342Z,4.50
2023-07-24T14:14:10.187Z,4.60
2023-07-24T14:16:43.068Z,4.30
2023-07-24T14:19:14.474Z,5.00
2023-07-24T14:21:45.368Z,4.50
2023-07-24T14:24:16.826Z,4.30
2023-07-24T14:26:48.066Z,5.00
2023-07-24T14:29:19.319Z,5.70
2023-07-24T14:31:50.381Z,4.90
2023-07-24T14:34:21.351Z,4.70
2023-07-24T14:36:53.943Z,5.10
2023-07-24T14:39:24.857Z,4.50
2023-07-24T14:41:56.613Z,5.00
2023-07-24T14:44:29.225Z,4.60
2023-07-24T14:47:00.338Z,5.20
2023-07-24T14:49:31.350Z,5.30
2023-07-24T14:52:02.332Z,4.50
2023-07-24T14:54:34.006Z,5.10
2023-07-24T14:57:19.367Z,4.90
2023-07-24T14:59:55.958Z,4.80
2023-07-24T15:02:27.066Z,5.00
2023-07-24T15:04:58.530Z,5.60
2023-07-24T15:07:29.604Z,5.70
2023-07-24T15:10:00.674Z,5.00
2023-07-24T15:12:33.139Z,4.70
2023-07-24T15:15:04.341Z,5.40
2023-07-24T15:17:35.554Z,4.50
2023-07-24T15:20:09.275Z,4.70
2023-07-24T15:22:40.181Z,5.70
2023-07-24T15:25:11.872Z,5.60
2023-07-24T15:27:42.888Z,5.60
2023-07-24T15:30:14.497Z,5.40
2023-07-24T15:32:47.447Z,4.40
2023-07-24T15:35:18.860Z,4.00
2023-07-24T15:37:49.956Z,4.00
2023-07-24T15:41:25.586Z,3.90
2023-07-24T15:43:56.602Z,4.10
2023-07-24T15:46:29.820Z,4.10
2023-07-24T15:49:01.267Z,4.40
2023-07-24T15:51:33.265Z,4.30
2023-07-24T15:54:08.242Z,4.70
2023-07-24T15:56:40.211Z,4.00
2023-07-24T15:59:11.243Z,4.70
2023-07-24T16:01:42.563Z,4.90
2023-07-24T16:04:13.621Z,4.70
2023-07-24T16:06:44.868Z,4.90
2023-07-24T16:09:16.173Z,4.70
2023-07-24T16:11:48.287Z,5.10
2023-07-24T16:14:19.288Z,4.80
2023-07-24T16:16:50.513Z,5.50
2023-07-24T16:19:26.247Z,5.10
2023-07-24T16:21:58.017Z,4.70
2023-07-24T16:24:29.167Z,5.00
2023-07-24T16:27:02.927Z,4.70
2023-07-24T16:29:35.583Z,4.80
2023-07-24T16:32:07.474Z,5.00
2023-07-24T16:34:38.577Z,5.30
2023-07-24T16:37:10.288Z,5.10
2023-07-24T16:39:41.543Z,5.40
2023-07-24T16:42:12.793Z,4.70
2023-07-24T16:44:43.886Z,4.90
2023-07-24T16:47:15.013Z,5.00
2023-07-24T16:49:46.395Z,5.40
2023-07-24T16:52:17.342Z,5.40
2023-07-24T16:54:48.471Z,5.90
2023-07-24T16:57:19.653Z,5.70
2023-07-24T16:59:51.284Z,5.40
2023-07-24T17:02:22.393Z,5.50
2023-07-24T17:04:53.452Z,5.70
2023-07-24T17:07:24.635Z,5.40
2023-07-24T17:09:55.737Z,5.60
2023-07-24T17:12:27.490Z,6.10
2023-07-24T17:14:58.596Z,5.70
2023-07-24T17:17:29.603Z,6.10
2023-07-24T17:20:00.716Z,5.40
2023-07-24T17:22:33.558Z,4.90
2023-07-24T17:25:05.158Z,5.00
2023-07-24T17:27:38.074Z,5.20
2023-07-24T17:30:10.879Z,5.20
2023-07-24T17:32:42.019Z,5.10
2023-07-24T17:35:13.634Z,5.20
2023-07-24T17:37:44.626Z,4.40
2023-07-24T17:40:16.224Z,8.90
2023-07-24T17:42:47.484Z,4.40
2023-07-24T17:45:19.206Z,5.60
2023-07-24T17:47:50.414Z,5.00
2023-07-24T17:50:22.848Z,4.40
2023-07-24T17:52:54.055Z,4.60
2023-07-24T17:55:25.204Z,4.90
2023-07-24T17:57:56.318Z,4.70
2023-07-24T18:00:28.101Z,4.60
2023-07-24T18:02:59.647Z,4.90
2023-07-24T18:05:31.770Z,4.60
2023-07-24T18:08:02.926Z,4.20
2023-07-24T18:10:34.204Z,5.00
2023-07-24T18:13:05.471Z,4.70
2023-07-24T18:15:37.045Z,5.10
2023-07-24T18:18:08.183Z,4.70
2023-07-24T18:20:39.442Z,5.30
2023-07-24T18:23:10.531Z,5.10
2023-07-24T18:25:41.963Z,4.60
2023-07-24T18:28:13.566Z,5.10
2023-07-24T18:30:44.748Z,5.30
2023-07-24T18:33:16.081Z,5.50
2023-07-24T18:35:47.761Z,5.50
2023-07-24T18:38:18.770Z,5.00
2023-07-24T18:40:50.266Z,5.60
2023-07-24T18:43:21.402Z,4.80
2023-07-24T18:45:52.606Z,4.90
2023-07-24T18:48:23.867Z,4.80
2023-07-24T18:50:55.251Z,5.40
2023-07-24T18:53:26.400Z,4.90
2023-07-24T18:55:59.343Z,5.20
2023-07-24T18:58:30.773Z,4.60
2023-07-24T19:01:03.274Z,4.60
2023-07-24T19:03:35.137Z,4.80
2023-07-24T19:06:08.105Z,4.60
2023-07-24T19:08:39.514Z,5.00
2023-07-24T19:11:11.168Z,4.50
2023-07-24T19:13:42.487Z,4.60
2023-07-24T19:16:13.636Z,4.90
2023-07-24T19:18:45.066Z,4.20
2023-07-24T19:21:16.292Z,5.10
2023-07-24T19:23:47.344Z,3.90
2023-07-24T19:26:18.402Z,3.70
2023-07-24T19:28:49.735Z,4.00
2023-07-24T19:31:20.823Z,3.40
2023-07-24T19:33:51.894Z,3.30
2023-07-24T19:36:23.020Z,2.70
2023-07-24T19:38:54.263Z,2.60
2023-07-24T19:41:25.588Z,2.70
2023-07-24T19:43:56.749Z,2.60
2023-07-24T19:46:27.841Z,2.40
2023-07-24T19:48:58.933Z,3.20
2023-07-24T19:51:30.481Z,2.60
2023-07-24T19:54:02.022Z,2.80
2023-07-24T19:56:33.288Z,2.40
2023-07-24T19:59:04.265Z,2.60
2023-07-24T20:01:35.628Z,2.30
2023-07-24T20:04:07.535Z,2.60
2023-07-24T20:06:38.947Z,2.40
2023-07-24T20:09:10.178Z,2.80
2023-07-24T20:11:41.275Z,2.40
2023-07-24T20:14:12.385Z,3.00
2023-07-24T20:16:43.406Z,2.40
2023-07-24T20:19:14.725Z,2.40
2023-07-24T20:21:46.072Z,2.40
2023-07-24T20:24:17.083Z,2.40
2023-07-24T20:26:48.320Z,2.70
2023-07-24T20:29:20.527Z,2.60
2023-07-24T20:31:51.703Z,3.00
2023-07-24T20:34:22.866Z,2.60
2023-07-24T20:36:53.973Z,3.10
2023-07-24T20:39:25.537Z,3.10
2023-07-24T20:41:57.364Z,2.90
2023-07-24T20:44:28.512Z,3.10
2023-07-24T20:46:59.684Z,3.20
2023-07-24T20:49:30.857Z,3.10
2023-07-24T20:52:02.365Z,3.20
2023-07-24T20:54:33.690Z,2.70
2023-07-24T20:57:05.265Z,3.00
2023-07-24T20:59:37.017Z,3.10
2023-07-24T21:02:08.945Z,2.40
2023-07-24T21:04:40.062Z,2.90
2023-07-24T21:07:11.779Z,3.20
2023-07-24T21:09:43.109Z,2.70
2023-07-24T21:12:14.147Z,2.80
2023-07-24T21:14:46.214Z,2.80
2023-07-24T21:17:17.394Z,2.80
2023-07-24T21:19:48.556Z,2.80
2023-07-24T21:22:19.586Z,3.10
2023-07-24T21:24:50.897Z,2.80
2023-07-24T21:27:22.046Z,2.60
2023-07-24T21:29:56.363Z,3.30
2023-07-24T21:32:27.505Z,3.00
2023-07-24T21:34:59.482Z,2.90
2023-07-24T21:37:30.671Z,2.80
2023-07-24T21:40:01.782Z,2.90
2023-07-24T21:42:33.418Z,3.10
2023-07-24T21:45:04.701Z,2.70
2023-07-24T21:47:35.826Z,2.70
2023-07-24T21:50:07.862Z,2.90
2023-07-24T21:52:39.303Z,2.80
2023-07-24T21:55:11.541Z,2.90
2023-07-24T21:57:42.535Z,2.70
2023-07-24T22:00:15.382Z,2.60
2023-07-24T22:02:47.095Z,2.20
2023-07-24T22:05:18.652Z,2.50
2023-07-24T22:07:49.898Z,2.50
2023-07-24T22:10:21.370Z,2.80
2023-07-24T22:12:52.509Z,2.60
2023-07-24T22:15:23.410Z,2.40
2023-07-24T22:17:54.572Z,2.70
2023-07-24T22:22:59.626Z,2.30
2023-07-24T22:25:30.769Z,2.40
2023-07-24T22:28:01.946Z,2.50
2023-07-24T22:30:33.040Z,2.70
2023-07-24T22:33:04.621Z,2.70
2023-07-24T22:35:36.107Z,2.40
2023-07-24T22:38:07.332Z,2.70
2023-07-24T22:40:38.659Z,2.30
2023-07-24T22:43:09.922Z,2.40
2023-07-24T22:45:41.033Z,2.80
2023-07-24T22:48:12.250Z,2.50
2023-07-24T22:50:43.404Z,2.40
2023-07-24T22:53:14.697Z,2.40
2023-07-24T22:55:46.137Z,2.50
2023-07-24T22:58:17.194Z,2.70
2023-07-24T23:00:48.797Z,2.40
2023-07-24T23:03:19.989Z,2.60
2023-07-24T23:05:51.551Z,2.60
2023-07-24T23:08:22.641Z,2.30
2023-07-24T23:10:53.731Z,2.20
2023-07-24T23:13:25.442Z,2.50
2023-07-24T23:15:56.425Z,2.40
2023-07-24T23:18:27.333Z,2.20
2023-07-24T23:21:04.157Z,2.30
2023-07-24T23:23:35.309Z,2.80
2023-07-24T23:26:07.547Z,2.50
2023-07-24T23:28:38.719Z,2.60
2023-07-24T23:31:10.339Z,2.60
2023-07-24T23:33:42.073Z,2.70
2023-07-24T23:36:13.442Z,2.30
2023-07-24T23:38:44.464Z,2.80
2023-07-24T23:41:16.183Z,2.50
2023-07-24T23:43:47.499Z,2.50
2023-07-24T23:46:19.408Z,2.50
2023-07-24T23:48:50.445Z,2.10
2023-07-24T23:51:23.140Z,2.40
2023-07-24T23:53:54.411Z,2.40
2023-07-24T23:56:25.695Z,2.50
2023-07-24T23:58:56.750Z,2.10
